Time;durP1;ratioP1;P1;durP2;ratioP2;P2;SDS_P1;SDS_P2;PMS_P1;PMS_P2;Temp;Humidity;BMP_temperature;BMP_pressure;BME280_temperature;BME280_humidity;BME280_pressure;Samples;Min_cycle;Max_cycle;Signal;HPM_P1;HPM_P2
2021/07/08 00:02:15;;;;;;;6.20;4.80;;;21.90;99.90;;;;;;5032936;28;20469;-83
2021/07/08 00:04:43;;;;;;;4.73;4.33;;;21.80;99.90;;;;;;5024319;28;20453;-83
2021/07/08 00:07:10;;;;;;;5.27;4.50;;;21.70;99.90;;;;;;5021150;28;20449;-84
2021/07/08 00:09:38;;;;;;;7.13;4.40;;;21.50;99.90;;;;;;5020741;28;20460;-84
2021/07/08 00:12:06;;;;;;;5.33;4.20;;;21.20;99.90;;;;;;5031573;28;20450;-83
2021/07/08 00:14:34;;;;;;;7.60;3.70;;;21.20;99.90;;;;;;5021545;28;21326;-85
2021/07/08 00:17:01;;;;;;;5.03;3.93;;;21.30;99.90;;;;;;5046458;28;20527;-85
2021/07/08 00:19:28;;;;;;;6.67;4.80;;;21.00;99.90;;;;;;5019122;28;20489;-84
2021/07/08 00:21:55;;;;;;;8.30;4.53;;;20.90;99.90;;;;;;5028211;28;20445;-85
2021/07/08 00:24:21;;;;;;;8.77;4.53;;;20.90;99.90;;;;;;5036634;28;20540;-85
2021/07/08 00:26:48;;;;;;;7.00;4.77;;;21.00;99.90;;;;;;5030298;28;20961;-84
2021/07/08 00:29:15;;;;;;;6.57;5.10;;;20.90;99.90;;;;;;5021569;28;20496;-86
2021/07/08 00:31:41;;;;;;;7.83;4.40;;;20.80;99.90;;;;;;5039715;28;20449;-85
2021/07/08 00:34:08;;;;;;;6.07;4.77;;;20.80;99.90;;;;;;5034252;28;20487;-83
2021/07/08 00:36:35;;;;;;;5.90;4.33;;;21.00;99.90;;;;;;5022035;28;20454;-84
2021/07/08 00:39:03;;;;;;;14.47;5.50;;;21.10;99.90;;;;;;5004957;28;20469;-84
2021/07/08 00:41:30;;;;;;;4.80;4.40;;;20.90;99.90;;;;;;5019692;28;20441;-85
2021/07/08 00:43:57;;;;;;;5.03;4.43;;;20.70;99.90;;;;;;5019647;28;20496;-84
2021/07/08 00:46:24;;;;;;;8.17;4.37;;;20.70;99.90;;;;;;5034367;28;20801;-84
2021/07/08 00:48:50;;;;;;;4.60;4.20;;;20.70;99.90;;;;;;5025072;28;20465;-83
2021/07/08 00:51:20;;;;;;;4.37;3.90;;;20.80;99.90;;;;;;5020782;28;20464;-84
2021/07/08 00:53:47;;;;;;;5.67;4.60;;;20.70;99.90;;;;;;5015384;28;20486;-83
2021/07/08 00:56:15;;;;;;;7.13;4.50;;;20.70;99.90;;;;;;5030344;28;20450;-84
2021/07/08 00:58:59;;;;;;;5.17;4.03;;;20.70;99.90;;;;;;5037105;28;20480;-85
2021/07/08 01:01:26;;;;;;;4.17;3.60;;;20.70;99.90;;;;;;5013896;28;20454;-84
2021/07/08 01:03:53;;;;;;;6.93;4.50;;;20.70;99.90;;;;;;5035427;28;20577;-86
2021/07/08 01:06:20;;;;;;;5.63;4.07;;;20.80;99.90;;;;;;5028381;28;20472;-79
2021/07/08 01:08:50;;;;;;;5.73;4.47;;;20.80;99.90;;;;;;5030815;28;20477;-84
2021/07/08 01:11:16;;;;;;;5.57;4.10;;;20.80;99.90;;;;;;5021952;28;20544;-82
2021/07/08 01:13:43;;;;;;;5.30;4.90;;;20.80;99.90;;;;;;5016086;28;20477;-84
2021/07/08 01:16:10;;;;;;;4.93;4.40;;;20.70;99.90;;;;;;5007860;28;20914;-84
2021/07/08 01:18:39;;;;;;;7.50;4.30;;;20.70;99.90;;;;;;5013960;28;20551;-83
2021/07/08 01:21:25;;;;;;;4.23;3.60;;;20.50;99.90;;;;;;5026920;28;20448;-84
2021/07/08 01:23:57;;;;;;;5.90;4.07;;;20.20;99.90;;;;;;5033335;28;20457;-84
2021/07/08 01:26:24;;;;;;;5.10;3.63;;;20.20;99.90;;;;;;5030240;28;20568;-83
2021/07/08 01:28:53;;;;;;;5.03;3.70;;;20.10;99.90;;;;;;5041771;28;20851;-84
2021/07/08 01:31:22;;;;;;;8.17;4.47;;;20.10;99.90;;;;;;5005746;28;20465;-83
2021/07/08 01:33:51;;;;;;;6.90;4.17;;;20.00;99.90;;;;;;5002297;28;20597;-83
2021/07/08 01:36:19;;;;;;;8.33;4.23;;;20.10;99.90;;;;;;5008326;28;20560;-84
2021/07/08 01:38:45;;;;;;;6.03;4.27;;;20.20;99.90;;;;;;5006959;28;20472;-84
2021/07/08 01:41:12;;;;;;;4.67;4.03;;;20.20;99.90;;;;;;4975566;28;1069406;-83
2021/07/08 01:43:41;;;;;;;6.20;4.67;;;20.10;99.90;;;;;;5018085;28;20453;-83
2021/07/08 01:46:16;;;;;;;5.53;4.00;;;20.10;99.90;;;;;;5011551;28;20454;-83
2021/07/08 01:48:46;;;;;;;4.80;4.40;;;19.90;99.90;;;;;;5028130;28;20497;-82
2021/07/08 01:51:29;;;;;;;7.00;4.37;;;19.90;99.90;;;;;;5025037;28;20462;-83
2021/07/08 01:53:57;;;;;;;5.03;4.40;;;20.00;99.90;;;;;;4995414;28;20485;-83
2021/07/08 01:56:23;;;;;;;9.80;5.90;;;20.00;99.90;;;;;;5014519;28;20449;-83
2021/07/08 01:58:52;;;;;;;6.03;3.83;;;19.90;99.90;;;;;;5033433;28;20499;-84
2021/07/08 02:01:22;;;;;;;6.50;3.80;;;20.00;99.90;;;;;;5017322;28;20453;-83
2021/07/08 02:03:49;;;;;;;5.27;4.77;;;20.00;99.90;;;;;;5009741;28;20454;-83
2021/07/08 02:06:17;;;;;;;4.57;4.13;;;20.10;99.90;;;;;;5016841;28;20449;-83
2021/07/08 02:08:44;;;;;;;5.00;4.00;;;20.00;99.90;;;;;;4997285;28;20509;-84
2021/07/08 02:11:12;;;;;;;5.57;4.87;;;19.80;99.90;;;;;;5015533;28;20958;-84
2021/07/08 02:13:39;;;;;;;5.60;4.43;;;19.80;99.90;;;;;;4998697;28;20467;-84
2021/07/08 02:16:08;;;;;;;7.10;4.60;;;19.80;99.90;;;;;;5017128;28;20485;-83
2021/07/08 02:18:36;;;;;;;7.00;4.73;;;19.80;99.90;;;;;;5034918;28;20540;-83
2021/07/08 02:21:04;;;;;;;6.73;4.93;;;19.80;99.90;;;;;;5031545;28;20947;-84
2021/07/08 02:23:32;;;;;;;5.47;4.43;;;19.80;99.90;;;;;;5028304;28;20504;-83
2021/07/08 02:26:00;;;;;;;5.17;4.03;;;19.80;99.90;;;;;;5029734;28;20457;-84
2021/07/08 02:28:27;;;;;;;5.30;4.90;;;19.80;99.90;;;;;;5016034;28;20458;-84
2021/07/08 02:30:54;;;;;;;4.80;4.40;;;19.70;99.90;;;;;;5022186;28;20816;-83
2021/07/08 02:33:21;;;;;;;4.97;4.20;;;19.50;99.90;;;;;;5016534;28;20892;-82
2021/07/08 02:35:47;;;;;;;7.33;4.00;;;19.40;99.90;;;;;;5040292;28;20441;-84
2021/07/08 02:38:14;;;;;;;4.30;3.80;;;19.40;99.90;;;;;;5024118;28;20462;-83
2021/07/08 02:40:41;;;;;;;4.40;4.10;;;19.30;99.90;;;;;;5042311;28;20457;-84
2021/07/08 02:43:09;;;;;;;7.93;4.40;;;19.20;99.90;;;;;;5016446;28;20466;-84
2021/07/08 02:45:38;;;;;;;6.37;3.80;;;19.30;99.90;;;;;;5018900;28;20476;-84
2021/07/08 02:48:07;;;;;;;5.23;4.73;;;19.50;99.90;;;;;;5010995;28;20453;-84
2021/07/08 02:50:35;;;;;;;4.40;4.00;;;19.40;99.90;;;;;;5016877;28;20457;-83
2021/07/08 02:53:02;;;;;;;5.00;4.60;;;19.50;99.90;;;;;;5030214;28;20465;-82
2021/07/08 02:55:30;;;;;;;4.63;4.20;;;19.60;99.90;;;;;;5041364;28;20449;-84
2021/07/08 02:57:59;;;;;;;8.73;5.00;;;19.50;99.90;;;;;;5036436;28;20481;-84
2021/07/08 03:00:26;;;;;;;5.43;3.77;;;19.30;99.90;;;;;;5019851;28;20465;-83
2021/07/08 03:02:53;;;;;;;4.47;4.07;;;19.10;99.90;;;;;;5009117;28;20510;-84
2021/07/08 03:05:20;;;;;;;8.13;4.57;;;19.20;99.90;;;;;;5017045;28;20450;-84
2021/07/08 03:07:47;;;;;;;7.13;4.27;;;19.40;99.90;;;;;;5020628;28;20454;-84
2021/07/08 03:10:24;;;;;;;5.37;4.90;;;19.30;99.90;;;;;;5009746;28;20990;-83
2021/07/08 03:12:53;;;;;;;5.23;4.60;;;19.40;99.90;;;;;;5019583;28;20541;-84
2021/07/08 03:15:20;;;;;;;6.30;4.67;;;19.30;99.90;;;;;;5045862;28;20473;-84
2021/07/08 03:17:47;;;;;;;8.03;4.93;;;19.20;99.90;;;;;;5045321;28;20438;-84
2021/07/08 03:20:21;;;;;;;6.30;4.67;;;19.10;99.90;;;;;;5027227;28;20532;-84
2021/07/08 03:22:50;;;;;;;6.00;4.67;;;19.00;99.90;;;;;;5022163;28;20448;-83
2021/07/08 03:25:20;;;;;;;4.57;4.17;;;19.00;99.90;;;;;;5039813;28;20445;-83
2021/07/08 03:27:52;;;;;;;9.80;4.50;;;19.20;99.90;;;;;;5036896;28;20458;-84
2021/07/08 03:30:21;;;;;;;4.87;4.33;;;19.20;99.90;;;;;;5034378;28;20506;-83
2021/07/08 03:32:50;;;;;;;5.73;3.90;;;19.20;99.90;;;;;;5031738;28;20461;-82
2021/07/08 03:35:23;;;;;;;7.33;5.47;;;19.10;99.90;;;;;;5031678;28;20478;-83
2021/07/08 03:37:50;;;;;;;5.33;4.20;;;19.00;99.90;;;;;;5027429;28;20470;-82
2021/07/08 03:40:18;;;;;;;3.90;3.60;;;18.80;99.90;;;;;;5035398;28;20495;-83
2021/07/08 03:42:45;;;;;;;5.67;4.77;;;18.80;99.90;;;;;;5028779;28;20454;-83
2021/07/08 03:45:13;;;;;;;6.60;4.37;;;19.00;99.90;;;;;;5046881;28;20525;-84
2021/07/08 03:47:41;;;;;;;5.13;4.63;;;18.90;99.90;;;;;;5028010;28;20449;-83
2021/07/08 03:50:13;;;;;;;7.13;3.70;;;19.00;99.90;;;;;;5027207;28;20484;-83
2021/07/08 03:52:52;;;;;;;5.70;4.80;;;18.80;99.90;;;;;;5019416;28;20848;-83
2021/07/08 03:55:23;;;;;;;7.00;4.07;;;18.70;99.90;;;;;;5006910;28;20568;-83
2021/07/08 03:57:57;;;;;;;6.10;3.93;;;18.80;99.90;;;;;;5023785;28;20819;-83
2021/07/08 04:00:43;;;;;;;5.20;3.50;;;18.70;99.90;;;;;;5024855;28;20976;-84
2021/07/08 04:03:12;;;;;;;7.27;4.30;;;18.80;99.90;;;;;;5022333;28;20448;-82
2021/07/08 04:05:40;;;;;;;7.33;4.47;;;19.00;99.90;;;;;;5033091;28;20449;-83
2021/07/08 04:08:08;;;;;;;5.50;4.90;;;19.10;99.90;;;;;;5024072;28;20549;-83
2021/07/08 04:10:39;;;;;;;5.53;5.03;;;19.30;99.90;;;;;;5022286;28;20472;-83
2021/07/08 04:13:14;;;;;;;7.93;4.43;;;19.30;99.90;;;;;;4998752;28;20785;-81
2021/07/08 04:15:42;;;;;;;5.97;4.33;;;19.20;99.90;;;;;;5030971;28;20508;-83
2021/07/08 04:18:10;;;;;;;5.80;4.40;;;19.20;99.90;;;;;;5010236;28;20505;-83
2021/07/08 04:20:37;;;;;;;5.80;4.70;;;19.10;99.90;;;;;;5028757;28;20476;-83
2021/07/08 04:23:08;;;;;;;5.53;4.10;;;19.40;99.90;;;;;;5010235;28;20451;-83
2021/07/08 04:25:38;;;;;;;6.50;4.50;;;19.30;99.90;;;;;;5032278;28;20440;-83
2021/07/08 04:28:09;;;;;;;6.07;4.17;;;19.10;99.90;;;;;;5024703;28;20544;-83
2021/07/08 04:30:37;;;;;;;8.37;4.20;;;19.10;99.90;;;;;;5006558;28;20492;-84
2021/07/08 04:33:05;;;;;;;7.03;4.30;;;19.40;99.90;;;;;;5023557;28;20450;-83
2021/07/08 04:35:39;;;;;;;5.40;4.50;;;19.40;99.90;;;;;;5010148;28;20573;-84
2021/07/08 04:38:08;;;;;;;8.90;4.90;;;19.30;99.90;;;;;;5018046;28;20534;-84
2021/07/08 04:40:36;;;;;;;17.23;6.00;;;19.30;99.90;;;;;;5029517;28;20468;-84
2021/07/08 04:43:04;;;;;;;11.30;5.10;;;19.10;99.90;;;;;;5027635;28;20451;-83
2021/07/08 04:45:31;;;;;;;8.70;4.93;;;19.10;99.90;;;;;;5002355;28;20548;-82
2021/07/08 04:47:58;;;;;;;8.07;4.50;;;19.00;99.90;;;;;;5013546;28;20465;-83
2021/07/08 04:50:25;;;;;;;6.73;4.43;;;18.80;99.90;;;;;;5030145;28;20496;-83
2021/07/08 04:52:52;;;;;;;11.20;5.53;;;18.80;99.90;;;;;;5020201;28;20565;-83
2021/07/08 04:55:22;;;;;;;9.80;5.10;;;18.80;99.90;;;;;;4998779;28;20474;-83
2021/07/08 04:57:50;;;;;;;8.40;4.90;;;18.90;99.90;;;;;;5023260;28;20469;-83
2021/07/08 05:00:21;;;;;;;7.67;5.17;;;19.20;99.90;;;;;;5003171;28;20477;-83
2021/07/08 05:02:49;;;;;;;12.77;6.00;;;19.30;99.90;;;;;;5006192;28;20480;-84
2021/07/08 05:05:17;;;;;;;8.83;5.60;;;19.30;99.90;;;;;;5018660;28;20470;-83
2021/07/08 05:07:44;;;;;;;8.70;4.70;;;19.30;99.90;;;;;;5018602;28;20509;-84
2021/07/08 05:10:13;;;;;;;6.60;4.60;;;19.20;99.90;;;;;;5011316;28;20541;-82
2021/07/08 05:12:41;;;;;;;5.77;4.83;;;19.20;99.90;;;;;;4997688;28;20534;-84
2021/07/08 05:15:15;;;;;;;11.17;4.63;;;19.10;99.90;;;;;;4999842;28;20874;-82
2021/07/08 05:17:43;;;;;;;7.17;4.20;;;19.10;99.90;;;;;;5009942;28;20740;-82
2021/07/08 05:20:11;;;;;;;6.80;4.67;;;19.10;99.90;;;;;;5007817;28;20473;-83
2021/07/08 05:22:39;;;;;;;7.50;4.67;;;19.00;99.90;;;;;;5017170;28;20561;-82
2021/07/08 05:25:08;;;;;;;5.20;3.90;;;18.90;99.90;;;;;;5022978;28;20497;-83
2021/07/08 05:27:36;;;;;;;4.73;4.23;;;18.90;99.90;;;;;;5017504;28;20447;-83
2021/07/08 05:30:05;;;;;;;6.23;4.70;;;19.10;99.90;;;;;;5025755;28;21309;-83
2021/07/08 05:32:32;;;;;;;6.67;4.50;;;19.10;99.90;;;;;;5031405;28;20465;-82
2021/07/08 05:34:59;;;;;;;6.30;5.00;;;19.30;99.90;;;;;;5023972;28;20566;-84
2021/07/08 05:37:25;;;;;;;5.70;4.17;;;19.40;99.90;;;;;;5027908;28;20449;-83
2021/07/08 05:39:52;;;;;;;5.53;4.60;;;19.60;99.90;;;;;;5023023;28;20485;-83
2021/07/08 05:42:19;;;;;;;5.00;3.80;;;19.40;99.90;;;;;;5005673;28;20457;-82
2021/07/08 05:44:46;;;;;;;8.87;4.00;;;19.30;99.90;;;;;;5018370;28;20458;-84
2021/07/08 05:47:12;;;;;;;4.13;3.83;;;19.50;99.90;;;;;;5028024;28;20467;-83
2021/07/08 05:49:55;;;;;;;5.77;4.37;;;19.80;99.90;;;;;;5025236;28;20891;-82
2021/07/08 05:52:25;;;;;;;6.60;4.27;;;19.90;99.90;;;;;;5018557;28;20568;-84
2021/07/08 05:54:53;;;;;;;7.43;6.00;;;19.90;99.90;;;;;;5016453;28;20527;-84
2021/07/08 05:57:25;;;;;;;11.80;9.90;;;19.90;99.90;;;;;;5019565;28;20542;-84
2021/07/08 05:59:54;;;;;;;5.20;4.20;;;19.80;99.90;;;;;;5000563;28;20553;-84
2021/07/08 06:02:21;;;;;;;4.10;3.80;;;19.60;99.90;;;;;;5014174;28;20501;-83
2021/07/08 06:04:48;;;;;;;7.70;5.03;;;19.80;99.90;;;;;;5021656;28;20447;-83
2021/07/08 06:07:14;;;;;;;5.90;3.97;;;19.70;99.90;;;;;;5034312;28;20460;-83
2021/07/08 06:09:41;;;;;;;7.30;3.90;;;19.80;99.90;;;;;;5017411;28;20485;-83
2021/07/08 06:12:08;;;;;;;8.00;4.17;;;19.60;99.90;;;;;;5013881;28;20841;-84
2021/07/08 06:14:35;;;;;;;4.07;3.70;;;19.40;99.90;;;;;;5024092;28;20484;-83
2021/07/08 06:17:03;;;;;;;4.97;4.50;;;19.80;99.90;;;;;;5034692;28;20449;-83
2021/07/08 06:19:30;;;;;;;4.60;4.20;;;20.00;99.90;;;;;;5031535;28;20482;-83
2021/07/08 06:21:56;;;;;;;5.77;4.47;;;20.20;99.90;;;;;;5032644;28;20457;-83
2021/07/08 06:24:23;;;;;;;4.50;4.10;;;20.30;99.90;;;;;;5023767;28;20461;-83
2021/07/08 06:26:50;;;;;;;6.20;4.57;;;20.40;99.90;;;;;;5010862;28;20462;-83
2021/07/08 06:29:19;;;;;;;5.60;3.90;;;20.50;99.90;;;;;;5014646;28;20470;-83
2021/07/08 06:31:47;;;;;;;5.00;4.17;;;20.50;99.90;;;;;;5008841;28;20490;-82
2021/07/08 06:34:14;;;;;;;9.17;6.10;;;20.60;99.90;;;;;;5017473;28;20554;-83
2021/07/08 06:36:41;;;;;;;18.90;13.53;;;20.70;99.70;;;;;;5027447;28;20541;-83
2021/07/08 06:39:07;;;;;;;8.83;7.10;;;20.50;99.70;;;;;;5024740;28;20473;-83
2021/07/08 06:41:36;;;;;;;5.20;4.30;;;20.40;99.90;;;;;;5045268;28;20441;-84
2021/07/08 06:44:03;;;;;;;8.73;4.27;;;20.20;99.90;;;;;;5052440;28;20539;-84
2021/07/08 06:46:31;;;;;;;6.47;4.20;;;20.20;99.90;;;;;;5026724;28;20472;-84
2021/07/08 06:48:58;;;;;;;8.50;5.03;;;20.20;99.90;;;;;;5006634;28;20481;-83
2021/07/08 06:51:27;;;;;;;7.47;5.07;;;20.70;99.90;;;;;;5033647;28;21093;-84
2021/07/08 06:53:55;;;;;;;5.27;4.77;;;21.00;98.80;;;;;;5006369;28;20446;-84
2021/07/08 06:56:24;;;;;;;9.70;5.60;;;21.10;99.00;;;;;;5027764;28;20450;-83
2021/07/08 06:59:17;;;;;;;12.43;5.77;;;21.10;99.00;;;;;;5022964;28;20478;-83
2021/07/08 07:01:44;;;;;;;9.83;4.80;;;21.10;99.40;;;;;;5020746;28;20446;-83
2021/07/08 07:04:11;;;;;;;4.90;4.40;;;20.90;99.50;;;;;;5023673;28;20465;-84
2021/07/08 07:06:38;;;;;;;7.67;4.70;;;21.00;99.80;;;;;;5028619;28;20453;-84
2021/07/08 07:09:04;;;;;;;5.97;4.70;;;21.50;98.60;;;;;;5036783;28;20457;-84
2021/07/08 07:11:31;;;;;;;7.33;4.30;;;21.80;97.70;;;;;;5037451;28;20525;-84
2021/07/08 07:13:58;;;;;;;6.33;4.93;;;21.50;98.00;;;;;;5030138;28;20454;-84
2021/07/08 07:16:27;;;;;;;5.83;4.10;;;21.50;98.50;;;;;;5029346;28;20461;-84
2021/07/08 07:18:59;;;;;;;4.80;3.93;;;21.60;98.50;;;;;;5036421;28;20476;-83
2021/07/08 07:21:31;;;;;;;4.70;4.30;;;21.70;98.10;;;;;;5018583;28;20448;-83
2021/07/08 07:24:01;;;;;;;5.97;4.63;;;21.90;98.00;;;;;;5015367;28;20528;-84
2021/07/08 07:26:30;;;;;;;7.43;4.20;;;22.50;96.70;;;;;;4998169;28;20469;-84
2021/07/08 07:28:58;;;;;;;4.20;3.80;;;22.40;96.50;;;;;;4999445;28;21026;-83
2021/07/08 07:31:24;;;;;;;5.03;4.53;;;22.40;96.50;;;;;;5018999;28;20838;-85
2021/07/08 07:33:51;;;;;;;6.30;4.77;;;22.20;96.60;;;;;;5015006;28;20470;-83
2021/07/08 07:36:18;;;;;;;7.70;4.67;;;22.10;96.40;;;;;;5030385;28;20549;-85
2021/07/08 07:38:44;;;;;;;5.63;4.70;;;22.20;96.50;;;;;;5034882;28;20469;-84
2021/07/08 07:41:11;;;;;;;5.67;4.97;;;22.10;96.60;;;;;;5032647;28;20473;-84
2021/07/08 07:43:38;;;;;;;7.80;4.80;;;22.30;96.40;;;;;;5032568;28;20457;-83
2021/07/08 07:46:05;;;;;;;5.20;4.70;;;22.30;96.50;;;;;;5031575;28;20565;-84
2021/07/08 07:48:34;;;;;;;5.00;4.43;;;22.40;96.80;;;;;;5018629;28;20449;-83
2021/07/08 07:51:03;;;;;;;7.73;4.43;;;22.50;96.40;;;;;;5020882;28;20528;-85
2021/07/08 07:53:35;;;;;;;6.80;4.07;;;22.40;96.00;;;;;;5017796;28;20495;-85
2021/07/08 07:56:05;;;;;;;5.57;3.93;;;22.70;96.20;;;;;;5017604;28;20480;-84
2021/07/08 07:58:32;;;;;;;6.23;4.17;;;22.60;95.90;;;;;;5038559;28;20449;-84
2021/07/08 08:01:00;;;;;;;4.83;4.30;;;22.60;96.30;;;;;;5013843;28;20811;-83
2021/07/08 08:03:26;;;;;;;5.80;4.30;;;22.90;95.80;;;;;;5043379;28;20810;-83
2021/07/08 08:08:39;;;;;;;6.93;5.60;;;23.50;94.70;;;;;;5051498;28;20472;-84
2021/07/08 08:11:11;;;;;;;5.50;4.97;;;23.70;94.20;;;;;;5014834;28;20454;-85
2021/07/08 08:13:47;;;;;;;6.50;4.73;;;23.50;94.30;;;;;;5008199;28;20457;-83
2021/07/08 08:16:16;;;;;;;6.20;5.23;;;23.70;94.40;;;;;;5019973;28;20500;-83
2021/07/08 08:18:43;;;;;;;9.77;4.93;;;23.80;94.20;;;;;;5020409;28;20504;-82
2021/07/08 08:21:12;;;;;;;7.37;4.90;;;23.70;94.40;;;;;;5038837;28;20460;-82
2021/07/08 08:23:39;;;;;;;8.03;4.67;;;24.40;93.80;;;;;;5039959;28;20444;-82
2021/07/08 08:26:06;;;;;;;9.17;5.50;;;24.80;92.90;;;;;;5017135;28;20468;-82
2021/07/08 08:28:33;;;;;;;7.77;4.97;;;24.60;92.60;;;;;;5037669;28;20484;-83
2021/07/08 08:31:00;;;;;;;6.20;4.30;;;24.60;92.60;;;;;;5047414;28;20861;-82
2021/07/08 08:33:27;;;;;;;5.93;4.40;;;24.90;91.90;;;;;;5030985;28;20540;-82
2021/07/08 08:35:53;;;;;;;6.90;4.63;;;24.90;91.40;;;;;;5040705;28;20477;-83
2021/07/08 08:38:20;;;;;;;6.50;4.60;;;24.90;91.10;;;;;;5034457;28;20475;-83
2021/07/08 08:40:49;;;;;;;7.43;4.30;;;25.50;91.00;;;;;;5037079;28;20457;-83
2021/07/08 08:43:16;;;;;;;10.30;4.90;;;25.50;90.40;;;;;;5029372;28;20810;-82
2021/07/08 08:45:47;;;;;;;6.40;4.83;;;26.10;88.60;;;;;;5017944;28;20458;-84
2021/07/08 08:48:14;;;;;;;5.53;5.00;;;26.40;86.30;;;;;;5016993;28;20465;-83
2021/07/08 08:50:44;;;;;;;8.40;5.10;;;26.40;85.50;;;;;;5031934;28;20466;-83
2021/07/08 08:53:12;;;;;;;6.73;4.90;;;26.10;85.70;;;;;;5033875;28;20844;-84
2021/07/08 08:55:40;;;;;;;6.97;4.83;;;25.90;86.10;;;;;;5031582;28;20504;-83
2021/07/08 08:58:10;;;;;;;12.37;4.60;;;25.70;87.00;;;;;;5017056;28;20559;-85
2021/07/08 09:00:49;;;;;;;7.40;4.77;;;26.00;85.70;;;;;;5032742;28;20474;-85
2021/07/08 09:03:25;;;;;;;8.37;4.90;;;26.80;83.60;;;;;;5016205;28;20468;-83
2021/07/08 09:06:00;;;;;;;6.10;4.40;;;27.10;83.00;;;;;;5009598;28;20528;-83
2021/07/08 09:08:27;;;;;;;6.37;4.27;;;28.20;78.50;;;;;;5029549;28;20484;-83
2021/07/08 09:11:18;;;;;;;8.77;4.30;;;28.10;77.60;;;;;;5005321;28;20465;-83
2021/07/08 09:14:05;;;;;;;8.50;4.50;;;27.80;78.20;;;;;;5030203;28;20457;-82
2021/07/08 09:16:33;;;;;;;5.10;3.83;;;27.70;74.80;;;;;;5012475;28;20588;-84
2021/07/08 09:19:10;;;;;;;3.90;3.60;;;27.40;75.20;;;;;;4997307;28;21124;-83
2021/07/08 09:21:40;;;;;;;4.70;3.47;;;27.10;75.40;;;;;;5041615;28;20445;-84
2021/07/08 09:24:13;;;;;;;6.67;3.80;;;26.70;75.50;;;;;;5038061;28;20456;-84
2021/07/08 09:26:53;;;;;;;9.20;3.20;;;26.60;76.50;;;;;;5033578;28;20445;-83
2021/07/08 09:29:24;;;;;;;6.50;4.00;;;26.70;76.00;;;;;;5038472;28;20465;-85
2021/07/08 09:32:07;;;;;;;6.70;4.43;;;27.00;75.00;;;;;;5050056;28;20437;-85
2021/07/08 09:34:39;;;;;;;5.03;3.60;;;27.80;72.40;;;;;;5064744;28;20448;-83
2021/07/08 09:37:15;;;;;;;4.43;3.97;;;27.70;72.30;;;;;;5023090;28;20929;-83
2021/07/08 09:39:57;;;;;;;8.83;4.00;;;27.40;73.60;;;;;;5035449;28;20501;-85
2021/07/08 09:42:37;;;;;;;5.63;3.83;;;27.10;73.80;;;;;;5034261;28;21236;-83
2021/07/08 09:45:12;;;;;;;4.93;3.30;;;27.30;72.90;;;;;;5014312;28;20445;-82
2021/07/08 09:47:50;;;;;;;5.13;3.07;;;27.20;73.80;;;;;;5021944;28;20453;-83
2021/07/08 09:50:30;;;;;;;6.60;3.20;;;27.40;73.20;;;;;;5038000;28;20465;-83
2021/07/08 09:53:16;;;;;;;4.50;3.67;;;27.50;72.10;;;;;;5020333;28;20623;-84
2021/07/08 09:56:43;;;;;;;8.50;3.63;;;27.30;72.10;;;;;;5021718;28;20474;-83
2021/07/08 09:58:57;;;;;;;6.20;4.07;;;27.00;73.10;;;;;;5031947;28;20457;-83
2021/07/08 10:01:25;;;;;;;8.20;3.80;;;27.20;72.20;;;;;;5040353;28;20450;-84
2021/07/08 10:03:53;;;;;;;4.37;3.20;;;27.10;72.00;;;;;;5015638;28;20445;-83
2021/07/08 10:06:21;;;;;;;5.60;3.53;;;27.00;73.20;;;;;;5031893;28;20563;-85
2021/07/08 10:08:49;;;;;;;5.40;3.30;;;27.80;71.30;;;;;;5034128;28;20497;-83
2021/07/08 10:11:19;;;;;;;3.20;2.97;;;27.80;69.80;;;;;;5030797;28;20449;-84
2021/07/08 10:13:46;;;;;;;6.67;3.20;;;27.60;71.10;;;;;;5019216;28;20453;-83
2021/07/08 10:16:14;;;;;;;5.60;3.00;;;27.40;71.40;;;;;;5037749;28;20481;-84
2021/07/08 10:18:44;;;;;;;3.53;3.23;;;27.10;71.80;;;;;;5038298;28;20480;-83
2021/07/08 10:21:22;;;;;;;3.77;2.83;;;26.70;71.70;;;;;;5020376;28;20511;-84
2021/07/08 10:23:55;;;;;;;7.10;2.97;;;26.50;73.10;;;;;;5027079;28;20438;-86
2021/07/08 10:26:49;;;;;;;3.83;2.70;;;26.90;73.40;;;;;;5044897;28;20562;-86
2021/07/08 10:29:52;;;;;;;4.13;2.90;;;27.20;73.30;;;;;;5125488;23;20661;-85
2021/07/08 10:32:39;;;;;;;8.70;3.17;;;27.10;72.40;;;;;;5032945;28;20430;-85
2021/07/08 10:35:13;;;;;;;5.70;3.00;;;26.60;73.30;;;;;;5010808;28;20470;-83
2021/07/08 10:37:57;;;;;;;3.50;3.00;;;26.50;74.10;;;;;;5017048;28;20493;-84
2021/07/08 10:40:32;;;;;;;5.30;3.20;;;26.60;74.70;;;;;;5016358;28;20474;-84
2021/07/08 10:43:16;;;;;;;4.37;3.70;;;26.50;74.70;;;;;;5025967;28;20453;-82
2021/07/08 10:46:10;;;;;;;6.63;3.50;;;26.30;75.40;;;;;;5034025;28;20457;-84
2021/07/08 10:48:43;;;;;;;5.53;3.60;;;26.20;76.90;;;;;;5033443;28;20475;-82
2021/07/08 10:51:32;;;;;;;3.90;3.50;;;26.00;78.30;;;;;;5004055;28;20458;-81
2021/07/08 10:53:59;;;;;;;6.07;3.63;;;25.80;80.60;;;;;;5030388;28;20464;-83
2021/07/08 10:56:33;;;;;;;10.57;3.87;;;25.70;80.60;;;;;;5013368;28;20478;-83
2021/07/08 10:59:13;;;;;;;5.90;4.10;;;25.70;81.50;;;;;;5022250;28;20461;-83
2021/07/08 11:01:42;;;;;;;6.43;3.20;;;25.70;81.60;;;;;;5009640;28;20482;-84
2021/07/08 11:04:10;;;;;;;4.33;3.20;;;25.90;80.90;;;;;;5021076;28;20458;-84
2021/07/08 11:06:43;;;;;;;5.77;4.03;;;26.20;80.40;;;;;;5008199;28;20460;-84
2021/07/08 11:09:18;;;;;;;4.70;3.90;;;26.90;77.90;;;;;;5026480;28;20469;-84
2021/07/08 11:11:45;;;;;;;3.30;3.00;;;27.20;76.20;;;;;;5026588;28;20458;-83
2021/07/08 11:14:29;;;;;;;4.23;2.90;;;26.80;77.10;;;;;;5003768;28;20532;-82
2021/07/08 11:17:11;;;;;;;6.03;3.37;;;26.30;77.20;;;;;;4999260;28;20526;-83
2021/07/08 11:19:45;;;;;;;4.00;3.07;;;26.20;77.90;;;;;;5026390;28;20771;-84
2021/07/08 11:22:21;;;;;;;3.13;2.83;;;26.20;78.60;;;;;;5009996;28;20458;-84
2021/07/08 11:24:55;;;;;;;4.77;2.97;;;26.00;78.90;;;;;;5025381;28;20440;-85
2021/07/08 11:27:29;;;;;;;3.83;3.07;;;26.10;79.30;;;;;;5033083;28;20457;-83
2021/07/08 11:30:03;;;;;;;5.33;3.37;;;26.50;78.60;;;;;;5031157;28;20481;-83
2021/07/08 11:35:41;;;;;;;7.20;4.07;;;26.30;79.30;;;;;;4971297;28;20494;-84
2021/07/08 11:38:07;;;;;;;6.20;3.30;;;26.20;79.50;;;;;;4971826;28;20519;-81
2021/07/08 11:40:47;;;;;;;4.80;3.30;;;26.20;80.10;;;;;;4991577;28;20474;-82
2021/07/08 11:43:36;;;;;;;5.80;3.40;;;26.40;79.00;;;;;;5012892;28;20458;-82
2021/07/08 11:46:11;;;;;;;4.23;3.03;;;26.20;79.80;;;;;;4999169;28;20464;-83
2021/07/08 11:48:40;;;;;;;8.73;3.40;;;26.00;80.60;;;;;;5006545;28;20491;-83
2021/07/08 11:51:18;;;;;;;10.87;4.17;;;25.90;80.90;;;;;;5033425;28;20987;-82
2021/07/08 11:53:46;;;;;;;7.20;3.90;;;25.80;81.20;;;;;;5037840;28;20445;-83
2021/07/08 11:56:18;;;;;;;7.80;3.90;;;25.70;81.30;;;;;;5018372;28;20493;-84
2021/07/08 11:58:45;;;;;;;6.63;4.40;;;25.80;81.70;;;;;;5019690;28;20504;-82
2021/07/08 12:01:15;;;;;;;3.70;3.10;;;25.80;81.50;;;;;;5021442;28;20455;-82
2021/07/08 12:03:48;;;;;;;4.20;3.00;;;25.60;80.00;;;;;;5023099;28;20554;-83
2021/07/08 12:06:20;;;;;;;5.60;3.70;;;25.50;80.50;;;;;;5023759;28;20462;-82
2021/07/08 12:08:54;;;;;;;4.30;3.23;;;25.50;80.50;;;;;;5026337;28;20477;-83
2021/07/08 12:11:36;;;;;;;5.50;3.57;;;25.40;80.90;;;;;;5016073;28;20453;-83
2021/07/08 12:14:11;;;;;;;4.43;3.00;;;25.40;80.80;;;;;;5015700;28;20434;-83
2021/07/08 12:16:44;;;;;;;4.23;3.77;;;25.20;81.00;;;;;;5015844;28;20905;-83
2021/07/08 12:19:18;;;;;;;4.17;2.80;;;25.20;81.40;;;;;;5016017;28;20470;-82
2021/07/08 12:21:45;;;;;;;6.10;3.03;;;25.20;81.50;;;;;;4998470;28;20461;-82
2021/07/08 12:24:30;;;;;;;3.80;3.07;;;25.10;81.40;;;;;;5016089;28;20434;-83
2021/07/08 12:27:02;;;;;;;4.00;3.03;;;25.00;82.30;;;;;;5017006;28;20442;-82
2021/07/08 12:29:32;;;;;;;3.63;3.17;;;25.10;83.00;;;;;;5015668;28;20478;-84
2021/07/08 12:32:11;;;;;;;5.87;3.07;;;25.10;82.90;;;;;;5001691;28;20489;-84
2021/07/08 12:34:58;;;;;;;5.77;3.70;;;25.10;82.70;;;;;;5024624;28;20473;-82
2021/07/08 12:37:37;;;;;;;5.93;2.83;;;25.10;82.70;;;;;;5029972;28;20762;-83
2021/07/08 12:40:19;;;;;;;3.13;2.90;;;25.20;82.50;;;;;;5013987;28;20994;-83
2021/07/08 12:42:48;;;;;;;6.60;3.27;;;25.10;82.50;;;;;;5027619;28;20452;-85
2021/07/08 12:45:20;;;;;;;3.93;3.43;;;25.10;83.00;;;;;;5036256;28;20451;-83
2021/07/08 12:47:53;;;;;;;4.63;3.60;;;25.20;82.90;;;;;;5016456;28;21010;-82
2021/07/08 12:50:27;;;;;;;4.97;3.90;;;25.20;83.20;;;;;;5021996;28;20866;-84
2021/07/08 12:52:56;;;;;;;3.40;3.17;;;25.20;83.00;;;;;;5031501;28;20454;-82
2021/07/08 12:55:38;;;;;;;8.50;3.87;;;25.10;82.00;;;;;;5021303;28;20458;-83
2021/07/08 12:58:09;;;;;;;4.77;3.30;;;25.10;82.50;;;;;;5034330;28;20556;-85
2021/07/08 13:00:37;;;;;;;3.20;2.90;;;25.10;82.90;;;;;;5029746;28;20480;-83
2021/07/08 13:03:15;;;;;;;4.17;3.50;;;25.20;82.20;;;;;;5018044;28;20872;-83
2021/07/08 13:05:45;;;;;;;6.47;3.27;;;25.20;82.60;;;;;;5002306;28;20497;-84
2021/07/08 13:08:46;;;;;;;5.77;3.17;;;25.20;81.10;;;;;;5019927;28;20564;-84
2021/07/08 13:11:37;;;;;;;4.00;2.80;;;25.20;81.80;;;;;;4963247;28;20453;-83